Time;durP1;ratioP1;P1;durP2;ratioP2;P2;SDS_P1;SDS_P2;PMS_P1;PMS_P2;Temp;Humidity;BMP_temperature;BMP_pressure;BME280_temperature;BME280_humidity;BME280_pressure;Samples;Min_cycle;Max_cycle;Signal;HPM_P1;HPM_P2
2023/10/16 00:03:09;;;;;;;;;;;;;;;;;;5166983;27;20324;-79
2023/10/16 00:05:38;;;;;;;;;;;;;;;;;;5132377;28;19962;-79
2023/10/16 00:08:06;;;;;;;;;;;;;;;;;;5122484;28;19968;-80
2023/10/16 00:10:33;;;;;;;;;;;;;;;;;;5127406;28;19990;-80
2023/10/16 00:13:04;;;;;;;;;;;;;;;;;;5132636;28;19951;-80
2023/10/16 00:15:32;;;;;;;;;;;;;;;;;;5131565;28;19932;-79
2023/10/16 00:17:59;;;;;;;;;;;;;;;;;;5132152;28;19976;-80
2023/10/16 00:20:27;;;;;;;;;;;;;;;;;;5132295;28;20031;-80
2023/10/16 00:22:54;;;;;;;;;;;;;;;;;;5131568;27;19924;-81
2023/10/16 00:25:29;;;;;;;;;;;;;;;;;;5130608;28;19923;-79
2023/10/16 00:27:56;;;;;;;;;;;;;;;;;;5130670;28;20362;-81
2023/10/16 00:30:23;;;;;;;;;;;;;;;;;;5131690;27;19923;-80
2023/10/16 00:32:51;;;;;;;;;;;;;;;;;;5132076;27;19928;-81
2023/10/16 00:35:18;;;;;;;;;;;;;;;;;;5132198;28;19924;-80
2023/10/16 00:37:46;;;;;;;;;;;;;;;;;;5132106;28;20348;-80
2023/10/16 00:40:15;;;;;;;;;;;;;;;;;;5131776;28;19949;-80
2023/10/16 00:42:43;;;;;;;;;;;;;;;;;;5131562;28;20389;-79
2023/10/16 00:45:10;;;;;;;;;;;;;;;;;;5130927;28;19924;-80
2023/10/16 00:47:39;;;;;;;;;;;;;;;;;;5131412;28;20348;-81
2023/10/16 00:50:06;;;;;;;;;;;;;;;;;;5130883;27;20438;-81
2023/10/16 00:52:33;;;;;;;;;;;;;;;;;;5131194;28;19963;-80
2023/10/16 00:55:00;;;;;;;;;;;;;;;;;;5131092;27;19928;-80
2023/10/16 00:57:28;;;;;;;;;;;;;;;;;;5131584;28;19924;-80
2023/10/16 00:59:58;;;;;;;;;;;;;;;;;;5130092;28;19924;-81
2023/10/16 01:02:31;;;;;;;;;;;;;;;;;;5114863;28;19924;-80
2023/10/16 01:05:01;;;;;;;;;;;;;;;;;;5127970;27;19930;-80
2023/10/16 01:07:28;;;;;;;;;;;;;;;;;;5131030;28;19932;-80
2023/10/16 01:09:55;;;;;;;;;;;;;;;;;;5125216;28;20001;-80
2023/10/16 01:12:22;;;;;;;;;;;;;;;;;;5109547;28;19978;-80
2023/10/16 01:14:49;;;;;;;;;;;;;;;;;;5115441;28;19930;-81
2023/10/16 01:17:29;;;;;;;;;;;;;;;;;;5105260;28;19986;-79
2023/10/16 01:19:56;;;;;;;;;;;;;;;;;;5115329;28;19931;-80
2023/10/16 01:22:29;;;;;;;;;;;;;;;;;;5105646;28;19924;-80
2023/10/16 01:24:59;;;;;;;;;;;;;;;;;;5109470;27;20387;-80
2023/10/16 01:27:29;;;;;;;;;;;;;;;;;;5110724;28;19924;-80
2023/10/16 01:29:59;;;;;;;;;;;;;;;;;;5099644;28;19977;-81
2023/10/16 01:32:26;;;;;;;;;;;;;;;;;;5113998;28;20263;-80
2023/10/16 01:34:55;;;;;;;;;;;;;;;;;;5113501;28;19955;-79
2023/10/16 01:37:23;;;;;;;;;;;;;;;;;;5103687;28;19928;-79
2023/10/16 01:39:53;;;;;;;;;;;;;;;;;;5098517;28;19924;-80
2023/10/16 01:42:20;;;;;;;;;;;;;;;;;;5109619;28;19977;-79
2023/10/16 01:44:48;;;;;;;;;;;;;;;;;;5116254;28;19924;-78
2023/10/16 01:47:15;;;;;;;;;;;;;;;;;;5113198;28;19946;-79
2023/10/16 01:49:42;;;;;;;;;;;;;;;;;;5116502;28;19924;-79
2023/10/16 01:52:11;;;;;;;;;;;;;;;;;;5101939;28;20019;-78
2023/10/16 01:54:39;;;;;;;;;;;;;;;;;;5111550;28;19923;-77
2023/10/16 01:57:10;;;;;;;;;;;;;;;;;;5115391;28;19967;-77
2023/10/16 01:59:37;;;;;;;;;;;;;;;;;;5115431;28;19924;-78
2023/10/16 02:02:05;;;;;;;;;;;;;;;;;;5113015;28;19924;-77
2023/10/16 02:04:32;;;;;;;;;;;;;;;;;;5114594;28;20302;-77
2023/10/16 02:07:00;;;;;;;;;;;;;;;;;;5114710;28;19927;-76
2023/10/16 02:09:31;;;;;;;;;;;;;;;;;;5114710;28;19931;-77
2023/10/16 02:11:59;;;;;;;;;;;;;;;;;;5114667;28;19982;-78
2023/10/16 02:14:26;;;;;;;;;;;;;;;;;;5114834;28;20026;-77
2023/10/16 02:16:53;;;;;;;;;;;;;;;;;;5113304;28;19930;-78
2023/10/16 02:19:20;;;;;;;;;;;;;;;;;;5114913;28;19932;-78
2023/10/16 02:21:49;;;;;;;;;;;;;;;;;;5115238;28;19930;-78
2023/10/16 02:24:16;;;;;;;;;;;;;;;;;;5112813;28;19998;-78
2023/10/16 02:26:55;;;;;;;;;;;;;;;;;;5112470;28;19924;-78
2023/10/16 02:29:22;;;;;;;;;;;;;;;;;;5113907;27;19931;-79
2023/10/16 02:31:50;;;;;;;;;;;;;;;;;;5111023;28;19928;-79
2023/10/16 02:34:22;;;;;;;;;;;;;;;;;;5109953;28;19966;-79
2023/10/16 02:36:49;;;;;;;;;;;;;;;;;;5117015;28;20357;-78
2023/10/16 02:39:35;;;;;;;;;;;;;;;;;;5115894;28;19927;-79
2023/10/16 02:42:05;;;;;;;;;;;;;;;;;;5110646;28;19931;-77
2023/10/16 02:44:32;;;;;;;;;;;;;;;;;;5107614;28;20018;-77
2023/10/16 02:47:00;;;;;;;;;;;;;;;;;;5112773;28;20316;-76
2023/10/16 02:49:27;;;;;;;;;;;;;;;;;;5114263;28;19930;-79
2023/10/16 02:51:54;;;;;;;;;;;;;;;;;;5114332;28;19923;-77
2023/10/16 02:54:22;;;;;;;;;;;;;;;;;;5113543;28;19928;-80
2023/10/16 02:56:50;;;;;;;;;;;;;;;;;;5114939;28;20014;-81
2023/10/16 02:59:18;;;;;;;;;;;;;;;;;;5110509;28;19931;-78
2023/10/16 03:01:50;;;;;;;;;;;;;;;;;;5113405;28;20002;-77
2023/10/16 03:04:17;;;;;;;;;;;;;;;;;;5113688;28;20391;-78
2023/10/16 03:06:44;;;;;;;;;;;;;;;;;;5114942;28;19924;-79
2023/10/16 03:09:25;;;;;;;;;;;;;;;;;;5114342;28;19928;-78
2023/10/16 03:12:04;;;;;;;;;;;;;;;;;;5113004;28;19949;-78
2023/10/16 03:14:44;;;;;;;;;;;;;;;;;;5112888;28;20302;-78
2023/10/16 03:17:19;;;;;;;;;;;;;;;;;;5108381;28;20018;-78
2023/10/16 03:19:48;;;;;;;;;;;;;;;;;;5114232;28;20240;-78
2023/10/16 03:22:15;;;;;;;;;;;;;;;;;;5113779;28;19924;-78
2023/10/16 03:24:42;;;;;;;;;;;;;;;;;;5113571;28;19959;-78
2023/10/16 03:27:09;;;;;;;;;;;;;;;;;;5113600;28;19924;-78
2023/10/16 03:29:37;;;;;;;;;;;;;;;;;;5114196;28;19923;-78
2023/10/16 03:32:04;;;;;;;;;;;;;;;;;;5111694;28;19924;-78
2023/10/16 03:34:31;;;;;;;;;;;;;;;;;;5111453;28;19930;-79
2023/10/16 03:37:06;;;;;;;;;;;;;;;;;;5114109;28;20010;-77
2023/10/16 03:39:33;;;;;;;;;;;;;;;;;;5101617;28;19943;-78
2023/10/16 03:42:00;;;;;;;;;;;;;;;;;;5098501;28;19941;-79
2023/10/16 03:44:27;;;;;;;;;;;;;;;;;;5110407;28;19927;-79
2023/10/16 03:46:55;;;;;;;;;;;;;;;;;;5112126;28;20433;-79
2023/10/16 03:49:22;;;;;;;;;;;;;;;;;;5109419;28;19971;-78
2023/10/16 03:51:50;;;;;;;;;;;;;;;;;;5111442;28;19923;-77
2023/10/16 03:54:30;;;;;;;;;;;;;;;;;;5111559;28;19930;-77
2023/10/16 03:56:58;;;;;;;;;;;;;;;;;;5113358;28;19969;-77
2023/10/16 03:59:26;;;;;;;;;;;;;;;;;;5101179;28;19924;-78
2023/10/16 04:01:53;;;;;;;;;;;;;;;;;;5101990;28;19989;-75
2023/10/16 04:04:24;;;;;;;;;;;;;;;;;;5111014;28;19950;-77
2023/10/16 04:06:52;;;;;;;;;;;;;;;;;;5108831;28;20401;-77
2023/10/16 04:09:19;;;;;;;;;;;;;;;;;;5092640;28;19931;-76
2023/10/16 04:11:54;;;;;;;;;;;;;;;;;;5092856;28;20015;-78
2023/10/16 04:14:44;;;;;;;;;;;;;;;;;;5111855;28;19927;-78
2023/10/16 04:17:10;;;;;;;;;;;;;;;;;;5112190;28;19965;-77
2023/10/16 04:19:36;;;;;;;;;;;;;;;;;;5113368;28;19923;-77
2023/10/16 04:22:09;;;;;;;;;;;;;;;;;;5110138;28;19924;-78
2023/10/16 04:24:44;;;;;;;;;;;;;;;;;;5105179;28;19969;-77
2023/10/16 04:32:40;;;;;;;;;;;;;;;;;;5111337;27;19924;-77
2023/10/16 04:35:52;;;;;;;;;;;;;;;;;;5113313;28;20027;-77
2023/10/16 04:37:55;;;;;;;;;;;;;;;;;;5103241;28;20383;-77
2023/10/16 04:43:16;;;;;;;;;;;;;;;;;;5106045;28;19927;-76
2023/10/16 04:45:59;;;;;;;;;;;;;;;;;;5102312;28;19924;-76
2023/10/16 04:48:47;;;;;;;;;;;;;;;;;;5109002;28;19920;-77
2023/10/16 04:51:16;;;;;;;;;;;;;;;;;;5112720;28;19963;-76
2023/10/16 04:53:59;;;;;;;;;;;;;;;;;;5113486;28;20019;-77
2023/10/16 04:56:57;;;;;;;;;;;;;;;;;;5102497;28;19923;-77
2023/10/16 05:02:11;;;;;;;;;;;;;;;;;;5114456;27;19928;-77
2023/10/16 05:07:37;;;;;;;;;;;;;;;;;;5079282;28;19936;-78
2023/10/16 05:10:17;;;;;;;;;;;;;;;;;;5105673;28;19923;-79
2023/10/16 05:15:41;;;;;;;;;;;;;;;;;;5106992;28;19977;-77
2023/10/16 05:18:20;;;;;;;;;;;;;;;;;;5106746;28;19924;-77
2023/10/16 05:21:15;;;;;;;;;;;;;;;;;;5111681;28;19925;-78
2023/10/16 06:15:51;;;;;;;;;;;;;;;;;;5109943;28;19919;-77
2023/10/16 06:18:18;;;;;;;;;;;;;;;;;;5102094;28;19927;-78
2023/10/16 06:20:45;;;;;;;;;;;;;;;;;;5110182;28;20032;-77
2023/10/16 06:23:19;;;;;;;;;;;;;;;;;;5112349;28;19947;-76
2023/10/16 06:25:47;;;;;;;;;;;;;;;;;;5114058;28;19924;-74
2023/10/16 06:28:15;;;;;;;;;;;;;;;;;;5112978;27;20000;-71
2023/10/16 06:30:42;;;;;;;;;;;;;;;;;;5110618;28;19924;-72
2023/10/16 06:33:09;;;;;;;;;;;;;;;;;;5122527;27;19930;-72
2023/10/16 06:35:36;;;;;;;;;;;;;;;;;;5099916;28;19924;-72
2023/10/16 06:38:10;;;;;;;;;;;;;;;;;;5106719;28;19932;-73
2023/10/16 06:40:40;;;;;;;;;;;;;;;;;;5101072;28;19924;-72
2023/10/16 06:43:14;;;;;;;;;;;;;;;;;;5109102;28;19931;-71
2023/10/16 06:45:41;;;;;;;;;;;;;;;;;;5107858;28;19923;-71
2023/10/16 06:48:09;;;;;;;;;;;;;;;;;;5104837;28;19947;-71
2023/10/16 06:50:42;;;;;;;;;;;;;;;;;;5098569;28;19970;-72
2023/10/16 06:53:09;;;;;;;;;;;;;;;;;;5108927;28;20404;-72
2023/10/16 06:55:36;;;;;;;;;;;;;;;;;;5105740;28;19978;-70
2023/10/16 06:58:05;;;;;;;;;;;;;;;;;;5102632;27;19931;-70
2023/10/16 07:00:33;;;;;;;;;;;;;;;;;;5100411;28;20040;-70
2023/10/16 07:03:02;;;;;;;;;;;;;;;;;;5108602;28;19992;-70
2023/10/16 07:05:42;;;;;;;;;;;;;;;;;;5095963;28;20383;-69
2023/10/16 07:08:09;;;;;;;;;;;;;;;;;;5103338;28;19934;-69
2023/10/16 07:10:40;;;;;;;;;;;;;;;;;;5109549;28;19924;-71
2023/10/16 07:13:07;;;;;;;;;;;;;;;;;;5109749;28;19924;-70
2023/10/16 07:15:34;;;;;;;;;;;;;;;;;;5105372;28;20305;-70
2023/10/16 07:18:04;;;;;;;;;;;;;;;;;;5108424;27;19976;-70
2023/10/16 07:20:31;;;;;;;;;;;;;;;;;;5109358;28;19923;-71
2023/10/16 07:23:00;;;;;;;;;;;;;;;;;;5111744;28;19969;-70
2023/10/16 07:25:37;;;;;;;;;;;;;;;;;;5112438;28;19931;-70
2023/10/16 07:28:08;;;;;;;;;;;;;;;;;;5110867;28;19950;-70
2023/10/16 07:30:35;;;;;;;;;;;;;;;;;;5112041;28;19951;-71
2023/10/16 07:33:02;;;;;;;;;;;;;;;;;;5112103;28;20394;-70
2023/10/16 07:35:29;;;;;;;;;;;;;;;;;;5107608;27;19974;-70
2023/10/16 07:37:58;;;;;;;;;;;;;;;;;;5110817;28;19935;-70
2023/10/16 07:40:25;;;;;;;;;;;;;;;;;;5112840;28;19930;-70
2023/10/16 07:42:52;;;;;;;;;;;;;;;;;;5109378;28;20427;-70
2023/10/16 07:45:19;;;;;;;;;;;;;;;;;;5112011;28;19931;-70
2023/10/16 07:47:48;;;;;;;;;;;;;;;;;;5110670;28;20035;-70
2023/10/16 07:50:15;;;;;;;;;;;;;;;;;;5092018;28;19924;-70
2023/10/16 07:52:43;;;;;;;;;;;;;;;;;;5106489;28;19928;-70
2023/10/16 07:55:18;;;;;;;;;;;;;;;;;;5112268;28;20393;-71
2023/10/16 07:57:45;;;;;;;;;;;;;;;;;;5111736;28;20291;-70
2023/10/16 08:00:14;;;;;;;;;;;;;;;;;;5110006;28;19923;-70
2023/10/16 08:02:45;;;;;;;;;;;;;;;;;;5108131;28;19928;-70
2023/10/16 08:05:15;;;;;;;;;;;;;;;;;;5108475;28;19924;-71
2023/10/16 08:07:47;;;;;;;;;;;;;;;;;;5111375;28;19924;-70
2023/10/16 08:13:11;;;;;;;;;;;;;;;;;;5103932;28;20015;-70
2023/10/16 08:15:38;;;;;;;;;;;;;;;;;;5112770;28;19935;-70
2023/10/16 08:18:10;;;;;;;;;;;;;;;;;;5111129;28;19923;-71
2023/10/16 08:20:50;;;;;;;;;;;;;;;;;;5111452;28;19924;-70
2023/10/16 08:23:17;;;;;;;;;;;;;;;;;;5105827;28;20409;-71
2023/10/16 08:25:47;;;;;;;;;;;;;;;;;;5116758;27;20386;-71
2023/10/16 08:28:21;;;;;;;;;;;;;;;;;;5115895;28;19923;-70
2023/10/16 08:30:53;;;;;;;;;;;;;;;;;;5116220;28;20370;-71
2023/10/16 08:33:28;;;;;;;;;;;;;;;;;;5115555;28;19924;-71
2023/10/16 08:35:58;;;;;;;;;;;;;;;;;;5115137;28;19928;-71
2023/10/16 08:38:26;;;;;;;;;;;;;;;;;;5116380;28;19924;-71
2023/10/16 08:40:57;;;;;;;;;;;;;;;;;;5112669;28;19928;-71
2023/10/16 08:43:39;;;;;;;;;;;;;;;;;;5116609;27;20400;-71
2023/10/16 08:46:11;;;;;;;;;;;;;;;;;;5113902;28;20592;-70
2023/10/16 08:48:45;;;;;;;;;;;;;;;;;;5111817;28;19924;-72
2023/10/16 08:51:12;;;;;;;;;;;;;;;;;;5112451;28;20045;-72
2023/10/16 08:53:42;;;;;;;;;;;;;;;;;;5114523;28;19977;-72
2023/10/16 08:56:09;;;;;;;;;;;;;;;;;;5109572;28;19935;-72
2023/10/16 08:58:36;;;;;;;;;;;;;;;;;;5113388;28;19954;-73
2023/10/16 09:01:07;;;;;;;;;;;;;;;;;;5126979;27;19985;-73
2023/10/16 09:03:34;;;;;;;;;;;;;;;;;;5114115;28;19927;-73
2023/10/16 09:06:04;;;;;;;;;;;;;;;;;;5114958;28;19928;-73
2023/10/16 09:08:32;;;;;;;;;;;;;;;;;;5115717;28;20362;-73
2023/10/16 09:11:05;;;;;;;;;;;;;;;;;;5115836;28;19924;-73
2023/10/16 09:13:35;;;;;;;;;;;;;;;;;;5110385;28;19924;-73
2023/10/16 09:16:02;;;;;;;;;;;;;;;;;;5115496;27;19931;-73
2023/10/16 09:18:31;;;;;;;;;;;;;;;;;;5099996;28;19923;-73
2023/10/16 09:21:00;;;;;;;;;;;;;;;;;;5115373;28;20394;-73
2023/10/16 09:23:27;;;;;;;;;;;;;;;;;;5114365;28;19927;-72
2023/10/16 09:25:56;;;;;;;;;;;;;;;;;;5115483;28;19988;-72
2023/10/16 09:28:23;;;;;;;;;;;;;;;;;;5115591;28;20013;-72
2023/10/16 09:30:52;;;;;;;;;;;;;;;;;;5102719;28;19924;-72
2023/10/16 09:33:20;;;;;;;;;;;;;;;;;;5099997;27;19981;-72
2023/10/16 09:35:47;;;;;;;;;;;;;;;;;;5100925;28;20023;-73
2023/10/16 09:38:18;;;;;;;;;;;;;;;;;;5115454;28;19924;-73
2023/10/16 09:40:45;;;;;;;;;;;;;;;;;;5114980;28;19924;-73
2023/10/16 09:43:24;;;;;;;;;;;;;;;;;;5113397;28;21685;-73
2023/10/16 09:46:33;;;;;;;;;;;;;;;;;;5114245;28;19924;-73
2023/10/16 09:48:42;;;;;;;;;;;;;;;;;;5108313;28;19960;-73
2023/10/16 09:51:12;;;;;;;;;;;;;;;;;;5115431;27;20282;-74
2023/10/16 09:53:39;;;;;;;;;;;;;;;;;;5112709;28;19975;-73
2023/10/16 09:56:06;;;;;;;;;;;;;;;;;;5114550;28;19950;-73
2023/10/16 09:58:33;;;;;;;;;;;;;;;;;;5114915;28;20391;-73
2023/10/16 10:01:06;;;;;;;;;;;;;;;;;;5113218;28;19928;-73
2023/10/16 10:03:33;;;;;;;;;;;;;;;;;;5114041;28;19970;-73
2023/10/16 10:06:08;;;;;;;;;;;;;;;;;;5114668;28;19949;-74
2023/10/16 10:08:51;;;;;;;;;;;;;;;;;;5115173;27;19993;-74
2023/10/16 10:11:17;;;;;;;;;;;;;;;;;;5099981;28;19923;-74
2023/10/16 10:13:47;;;;;;;;;;;;;;;;;;5113375;28;19924;-74
2023/10/16 10:16:14;;;;;;;;;;;;;;;;;;5113776;28;20390;-73
2023/10/16 10:18:44;;;;;;;;;;;;;;;;;;5114510;28;19952;-73
2023/10/16 10:21:12;;;;;;;;;;;;;;;;;;5112583;28;19930;-73
2023/10/16 10:23:39;;;;;;;;;;;;;;;;;;5112353;28;19930;-73
2023/10/16 10:26:07;;;;;;;;;;;;;;;;;;5114850;27;20348;-73
2023/10/16 10:28:37;;;;;;;;;;;;;;;;;;5114295;28;19923;-73
2023/10/16 10:31:05;;;;;;;;;;;;;;;;;;5113212;28;21606;-73
2023/10/16 10:33:32;;;;;;;;;;;;;;;;;;5112922;28;19924;-72
2023/10/16 10:35:59;;;;;;;;;;;;;;;;;;5100493;28;19928;-73
2023/10/16 10:38:29;;;;;;;;;;;;;;;;;;5106372;28;19970;-73
2023/10/16 10:40:56;;;;;;;;;;;;;;;;;;5100056;28;19930;-73
2023/10/16 10:43:23;;;;;;;;;;;;;;;;;;5112601;27;19923;-74
2023/10/16 10:45:51;;;;;;;;;;;;;;;;;;5111573;28;20000;-73
2023/10/16 10:48:24;;;;;;;;;;;;;;;;;;5111679;28;19930;-73
2023/10/16 10:50:51;;;;;;;;;;;;;;;;;;5113072;28;19924;-73
2023/10/16 10:53:20;;;;;;;;;;;;;;;;;;5112177;28;19924;-71
2023/10/16 10:55:47;;;;;;;;;;;;;;;;;;5112957;28;19924;-70
2023/10/16 10:58:14;;;;;;;;;;;;;;;;;;5114973;27;19923;-73
2023/10/16 11:00:44;;;;;;;;;;;;;;;;;;5114863;27;19923;-73
2023/10/16 11:03:22;;;;;;;;;;;;;;;;;;5113440;28;20010;-73
2023/10/16 11:05:49;;;;;;;;;;;;;;;;;;5114147;28;19963;-73
2023/10/16 11:08:25;;;;;;;;;;;;;;;;;;5113895;28;19924;-73
2023/10/16 11:10:52;;;;;;;;;;;;;;;;;;5113060;28;20015;-73
2023/10/16 11:13:21;;;;;;;;;;;;;;;;;;5108749;28;19923;-73
2023/10/16 11:15:48;;;;;;;;;;;;;;;;;;5112478;27;20014;-74
2023/10/16 11:18:18;;;;;;;;;;;;;;;;;;5112357;28;19932;-73
2023/10/16 11:20:46;;;;;;;;;;;;;;;;;;5111569;28;19927;-72
2023/10/16 11:23:13;;;;;;;;;;;;;;;;;;5105257;28;20309;-73
2023/10/16 11:25:44;;;;;;;;;;;;;;;;;;5109345;27;19923;-74
2023/10/16 11:28:11;;;;;;;;;;;;;;;;;;5107610;28;19937;-73
2023/10/16 11:30:39;;;;;;;;;;;;;;;;;;5103004;28;19930;-73
2023/10/16 11:33:09;;;;;;;;;;;;;;;;;;5115747;27;19923;-74
2023/10/16 11:35:35;;;;;;;;;;;;;;;;;;5112229;28;20001;-73
2023/10/16 11:38:12;;;;;;;;;;;;;;;;;;5110426;28;20024;-73
2023/10/16 11:40:42;;;;;;;;;;;;;;;;;;5107207;28;19923;-72
2023/10/16 11:43:11;;;;;;;;;;;;;;;;;;5097825;28;19927;-73
2023/10/16 11:45:38;;;;;;;;;;;;;;;;;;5109733;28;20283;-74
2023/10/16 11:48:19;;;;;;;;;;;;;;;;;;5110541;28;19931;-73
2023/10/16 11:50:50;;;;;;;;;;;;;;;;;;5109472;27;19924;-73
2023/10/16 11:53:23;;;;;;;;;;;;;;;;;;5097362;28;19999;-73
2023/10/16 11:55:50;;;;;;;;;;;;;;;;;;5105636;28;19992;-74
2023/10/16 11:58:17;;;;;;;;;;;;;;;;;;5108473;28;20000;-74
2023/10/16 12:00:44;;;;;;;;;;;;;;;;;;5103959;28;20018;-74
2023/10/16 12:03:14;;;;;;;;;;;;;;;;;;5110860;28;19931;-73
2023/10/16 12:05:42;;;;;;;;;;;;;;;;;;5111607;28;19924;-74
2023/10/16 12:08:09;;;;;;;;;;;;;;;;;;5119090;28;19976;-74
2023/10/16 12:10:36;;;;;;;;;;;;;;;;;;5105643;28;20441;-74
2023/10/16 12:13:03;;;;;;;;;;;;;;;;;;5099459;28;19971;-73
2023/10/16 12:15:31;;;;;;;;;;;;;;;;;;5111681;28;19923;-74
2023/10/16 12:18:01;;;;;;;;;;;;;;;;;;5110387;28;20328;-73
2023/10/16 12:20:28;;;;;;;;;;;;;;;;;;5104874;28;19927;-73
2023/10/16 12:22:55;;;;;;;;;;;;;;;;;;5101120;28;19996;-71
2023/10/16 12:25:23;;;;;;;;;;;;;;;;;;5110307;28;19924;-72
2023/10/16 12:27:51;;;;;;;;;;;;;;;;;;5107157;28;19924;-72
2023/10/16 12:30:19;;;;;;;;;;;;;;;;;;5109971;28;20003;-72
2023/10/16 12:32:47;;;;;;;;;;;;;;;;;;5111705;28;19934;-73
2023/10/16 12:35:17;;;;;;;;;;;;;;;;;;5107726;28;20007;-73
2023/10/16 12:37:44;;;;;;;;;;;;;;;;;;5101456;28;19924;-73
2023/10/16 12:40:27;;;;;;;;;;;;;;;;;;5107156;28;20268;-74
2023/10/16 12:42:55;;;;;;;;;;;;;;;;;;5111965;28;19924;-74
2023/10/16 12:45:23;;;;;;;;;;;;;;;;;;5107501;28;19942;-73
2023/10/16 12:47:51;;;;;;;;;;;;;;;;;;5111089;28;20450;-73
2023/10/16 12:50:23;;;;;;;;;;;;;;;;;;5111455;28;19923;-73
2023/10/16 12:52:50;;;;;;;;;;;;;;;;;;5110164;28;19923;-73
2023/10/16 12:55:19;;;;;;;;;;;;;;;;;;5104992;28;19957;-72
2023/10/16 12:57:47;;;;;;;;;;;;;;;;;;5100699;28;19927;-73
2023/10/16 13:00:18;;;;;;;;;;;;;;;;;;5110261;28;20496;-73
2023/10/16 13:02:45;;;;;;;;;;;;;;;;;;5108588;28;19923;-71
2023/10/16 13:05:14;;;;;;;;;;;;;;;;;;5104947;28;20427;-73
2023/10/16 13:07:41;;;;;;;;;;;;;;;;;;5109557;28;20282;-73
2023/10/16 13:10:09;;;;;;;;;;;;;;;;;;5112513;28;20033;-76
2023/10/16 13:12:39;;;;;;;;;;;;;;;;;;5109716;28;19970;-76
2023/10/16 13:15:08;;;;;;;;;;;;;;;;;;5113798;27;20240;-77
2023/10/16 13:17:35;;;;;;;;;;;;;;;;;;5116039;28;19927;-76
2023/10/16 13:20:04;;;;;;;;;;;;;;;;;;5105213;28;20395;-77
2023/10/16 13:22:31;;;;;;;;;;;;;;;;;;5101635;28;20290;-76
2023/10/16 13:24:59;;;;;;;;;;;;;;;;;;5111956;28;19934;-76
2023/10/16 13:27:27;;;;;;;;;;;;;;;;;;5110858;28;19934;-78
2023/10/16 13:29:54;;;;;;;;;;;;;;;;;;5113340;28;20375;-76
2023/10/16 13:32:21;;;;;;;;;;;;;;;;;;5114654;27;19923;-75
2023/10/16 13:34:50;;;;;;;;;;;;;;;;;;5110120;28;20284;-76
2023/10/16 13:37:18;;;;;;;;;;;;;;;;;;5116099;28;19977;-75
2023/10/16 13:39:45;;;;;;;;;;;;;;;;;;5109683;28;19933;-75
2023/10/16 13:42:14;;;;;;;;;;;;;;;;;;5116516;27;19977;-75
2023/10/16 13:44:42;;;;;;;;;;;;;;;;;;5112563;28;19923;-75
2023/10/16 13:47:10;;;;;;;;;;;;;;;;;;5105589;28;20263;-75
2023/10/16 13:49:37;;;;;;;;;;;;;;;;;;5115818;27;19924;-76
2023/10/16 13:52:07;;;;;;;;;;;;;;;;;;5110407;28;20039;-75
2023/10/16 13:54:34;;;;;;;;;;;;;;;;;;5112518;28;19924;-76
2023/10/16 13:57:02;;;;;;;;;;;;;;;;;;5113692;28;19939;-75
2023/10/16 13:59:29;;;;;;;;;;;;;;;;;;5112519;28;19986;-75
2023/10/16 14:01:58;;;;;;;;;;;;;;;;;;5111894;28;19924;-75
2023/10/16 14:04:32;;;;;;;;;;;;;;;;;;5110712;28;19924;-73
2023/10/16 14:06:59;;;;;;;;;;;;;;;;;;5113415;27;20381;-74
2023/10/16 14:09:28;;;;;;;;;;;;;;;;;;5104786;28;20051;-73
2023/10/16 14:11:58;;;;;;;;;;;;;;;;;;5111536;28;19923;-75
2023/10/16 14:14:26;;;;;;;;;;;;;;;;;;5110686;28;19978;-75
2023/10/16 14:16:53;;;;;;;;;;;;;;;;;;5110991;28;19924;-76
2023/10/16 14:19:22;;;;;;;;;;;;;;;;;;5110088;28;19969;-74
2023/10/16 14:21:51;;;;;;;;;;;;;;;;;;5113546;28;19924;-75
2023/10/16 14:24:18;;;;;;;;;;;;;;;;;;5115034;27;20283;-77
2023/10/16 14:26:49;;;;;;;;;;;;;;;;;;5108514;27;19946;-75
2023/10/16 14:29:16;;;;;;;;;;;;;;;;;;5127624;27;20379;-76
2023/10/16 14:31:46;;;;;;;;;;;;;;;;;;5110456;28;19931;-75
2023/10/16 14:34:17;;;;;;;;;;;;;;;;;;5110191;28;19931;-75
2023/10/16 14:36:45;;;;;;;;;;;;;;;;;;5108349;28;19927;-76
2023/10/16 14:39:13;;;;;;;;;;;;;;;;;;5109220;28;20277;-73
2023/10/16 14:41:41;;;;;;;;;;;;;;;;;;5110269;28;19929;-73
2023/10/16 14:44:09;;;;;;;;;;;;;;;;;;5109155;28;19962;-73
2023/10/16 14:46:36;;;;;;;;;;;;;;;;;;5105053;28;20425;-73
2023/10/16 14:49:04;;;;;;;;;;;;;;;;;;5108319;28;20026;-73
2023/10/16 14:51:31;;;;;;;;;;;;;;;;;;5110436;28;19927;-74
2023/10/16 14:54:00;;;;;;;;;;;;;;;;;;5103684;28;20342;-74
2023/10/16 14:56:27;;;;;;;;;;;;;;;;;;5076640;22;19933;-72
2023/10/16 14:58:54;;;;;;;;;;;;;;;;;;5008088;28;19925;-72
2023/10/16 15:01:23;;;;;;;;;;;;;;;;;;5009510;28;19937;-73
2023/10/16 15:03:51;;;;;;;;;;;;;;;;;;5010082;28;20296;-73
2023/10/16 15:06:18;;;;;;;;;;;;;;;;;;5010743;28;20368;-74
2023/10/16 15:08:45;;;;;;;;;;;;;;;;;;5010718;28;19988;-73
2023/10/16 15:11:12;;;;;;;;;;;;;;;;;;5012437;28;19941;-72
2023/10/16 15:13:39;;;;;;;;;;;;;;;;;;5008330;28;19925;-73
2023/10/16 15:16:07;;;;;;;;;;;;;;;;;;5007552;28;19937;-73
2023/10/16 15:18:34;;;;;;;;;;;;;;;;;;5011681;28;19983;-73
2023/10/16 15:21:01;;;;;;;;;;;;;;;;;;5008457;28;19930;-73
2023/10/16 15:23:29;;;;;;;;;;;;;;;;;;5005500;28;19925;-74
2023/10/16 15:25:57;;;;;;;;;;;;;;;;;;5011654;28;19972;-73
2023/10/16 15:28:25;;;;;;;;;;;;;;;;;;5007519;28;19925;-74
2023/10/16 15:30:53;;;;;;;;;;;;;;;;;;5012430;28;19932;-72
2023/10/16 15:33:20;;;;;;;;;;;;;;;;;;5006172;28;19968;-73
2023/10/16 15:35:51;;;;;;;;;;;;;;;;;;5009745;28;19926;-73
2023/10/16 15:38:18;;;;;;;;;;;;;;;;;;5010874;28;19926;-73
2023/10/16 15:40:46;;;;;;;;;;;;;;;;;;4995718;28;19926;-73
2023/10/16 15:43:15;;;;;;;;;;;;;;;;;;5011934;28;20005;-73
2023/10/16 15:45:44;;;;;;;;;;;;;;;;;;5011861;28;20017;-73
2023/10/16 15:48:12;;;;;;;;;;;;;;;;;;5011814;28;19936;-73
2023/10/16 15:50:40;;;;;;;;;;;;;;;;;;5012161;28;19969;-73
2023/10/16 15:53:07;;;;;;;;;;;;;;;;;;5012659;28;20693;-73
2023/10/16 15:55:34;;;;;;;;;;;;;;;;;;5011863;28;19925;-74
2023/10/16 15:58:01;;;;;;;;;;;;;;;;;;5008231;28;19933;-73
2023/10/16 16:00:31;;;;;;;;;;;;;;;;;;4995251;28;19933;-73
2023/10/16 16:02:58;;;;;;;;;;;;;;;;;;5011536;28;19929;-73
2023/10/16 16:05:27;;;;;;;;;;;;;;;;;;5011385;28;20019;-73
2023/10/16 16:07:54;;;;;;;;;;;;;;;;;;5012060;28;19964;-72
2023/10/16 16:10:21;;;;;;;;;;;;;;;;;;5012042;28;19925;-72
2023/10/16 16:12:48;;;;;;;;;;;;;;;;;;5011537;28;19980;-74
2023/10/16 16:15:17;;;;;;;;;;;;;;;;;;5011892;28;19972;-72
2023/10/16 16:17:45;;;;;;;;;;;;;;;;;;5011236;28;20015;-72
2023/10/16 16:20:15;;;;;;;;;;;;;;;;;;5007527;28;20017;-73
2023/10/16 16:22:42;;;;;;;;;;;;;;;;;;5011708;28;20340;-72
2023/10/16 16:25:12;;;;;;;;;;;;;;;;;;5011717;28;19925;-72
2023/10/16 16:27:39;;;;;;;;;;;;;;;;;;5009105;28;19926;-72
2023/10/16 16:30:07;;;;;;;;;;;;;;;;;;5011374;28;19929;-73
2023/10/16 16:32:34;;;;;;;;;;;;;;;;;;5007666;28;19933;-74
2023/10/16 16:35:03;;;;;;;;;;;;;;;;;;5011400;28;19977;-73
2023/10/16 16:37:30;;;;;;;;;;;;;;;;;;5011316;28;19977;-73
2023/10/16 16:39:57;;;;;;;;;;;;;;;;;;5008690;28;19926;-74
2023/10/16 16:42:24;;;;;;;;;;;;;;;;;;5001288;28;20110;-73
2023/10/16 16:44:51;;;;;;;;;;;;;;;;;;5012597;28;19926;-73
2023/10/16 16:47:18;;;;;;;;;;;;;;;;;;5012690;28;19979;-72
2023/10/16 16:49:45;;;;;;;;;;;;;;;;;;5011342;28;19977;-71
2023/10/16 16:52:12;;;;;;;;;;;;;;;;;;5015321;28;19929;-72
2023/10/16 16:54:39;;;;;;;;;;;;;;;;;;5011732;28;20388;-72
2023/10/16 16:57:06;;;;;;;;;;;;;;;;;;5010752;28;19972;-73
2023/10/16 16:59:33;;;;;;;;;;;;;;;;;;5013997;28;19968;-73
2023/10/16 17:02:01;;;;;;;;;;;;;;;;;;5012590;28;19930;-73
2023/10/16 17:04:28;;;;;;;;;;;;;;;;;;5014745;28;19947;-74
2023/10/16 17:06:59;;;;;;;;;;;;;;;;;;5015006;28;19960;-73
2023/10/16 17:09:28;;;;;;;;;;;;;;;;;;5015359;28;19929;-73
2023/10/16 17:11:55;;;;;;;;;;;;;;;;;;5014993;28;20260;-73
2023/10/16 17:14:22;;;;;;;;;;;;;;;;;;5014486;28;19929;-73
2023/10/16 17:16:49;;;;;;;;;;;;;;;;;;5015013;28;20289;-73
2023/10/16 17:19:17;;;;;;;;;;;;;;;;;;5014755;28;19929;-74
2023/10/16 17:21:47;;;;;;;;;;;;;;;;;;5010485;28;19983;-73
2023/10/16 17:24:14;;;;;;;;;;;;;;;;;;5008962;28;20436;-73
2023/10/16 17:26:41;;;;;;;;;;;;;;;;;;5008736;28;20012;-73
2023/10/16 17:29:09;;;;;;;;;;;;;;;;;;5012815;28;19926;-73
2023/10/16 17:31:36;;;;;;;;;;;;;;;;;;5009528;28;19988;-74
2023/10/16 17:34:05;;;;;;;;;;;;;;;;;;5018562;28;20023;-73
2023/10/16 17:36:33;;;;;;;;;;;;;;;;;;5016269;28;20355;-73
2023/10/16 17:39:02;;;;;;;;;;;;;;;;;;5013836;28;19975;-73
2023/10/16 17:41:29;;;;;;;;;;;;;;;;;;5010462;28;20016;-72
2023/10/16 17:43:56;;;;;;;;;;;;;;;;;;5021327;28;19925;-72
2023/10/16 17:46:23;;;;;;;;;;;;;;;;;;5011078;28;20024;-73
2023/10/16 17:48:50;;;;;;;;;;;;;;;;;;5011990;28;19972;-72
2023/10/16 17:51:17;;;;;;;;;;;;;;;;;;5011890;28;19925;-73
2023/10/16 17:53:44;;;;;;;;;;;;;;;;;;5013324;28;19932;-73
2023/10/16 17:56:12;;;;;;;;;;;;;;;;;;5016969;28;19961;-73
2023/10/16 17:58:39;;;;;;;;;;;;;;;;;;5011046;28;19933;-71
2023/10/16 18:01:12;;;;;;;;;;;;;;;;;;5006931;28;19925;-71
2023/10/16 18:03:39;;;;;;;;;;;;;;;;;;5011400;28;19980;-72
2023/10/16 18:06:07;;;;;;;;;;;;;;;;;;5015407;28;19976;-73
2023/10/16 18:08:34;;;;;;;;;;;;;;;;;;5011836;28;19933;-74
2023/10/16 18:11:01;;;;;;;;;;;;;;;;;;5013202;28;19944;-73
2023/10/16 18:13:28;;;;;;;;;;;;;;;;;;5011999;28;19925;-73